sensor_id;sensor_type;location;lat;lon;timestamp;pressure;altitude;pressure_sealevel;temperature;humidity
44637;BME280;30343;0.000;0.000;2022-08-04T00:02:08;99650.50;;;23.11;58.58
44637;BME280;30343;0.000;0.000;2022-08-04T00:05:00;99648.78;;;23.10;58.74
44637;BME280;30343;0.000;0.000;2022-08-04T00:07:59;99656.66;;;23.11;58.81
44637;BME280;30343;0.000;0.000;2022-08-04T00:10:49;99648.78;;;23.10;58.74
44637;BME280;30343;0.000;0.000;2022-08-04T00:13:41;99642.59;;;23.11;58.92
44637;BME280;30343;0.000;0.000;2022-08-04T00:16:35;99637.28;;;23.11;58.62
44637;BME280;30343;0.000;0.000;2022-08-04T00:19:27;99634.72;;;23.09;59.00
44637;BME280;30343;0.000;0.000;2022-08-04T00:22:16;99629.44;;;23.09;59.01
44637;BME280;30343;0.000;0.000;2022-08-04T00:25:03;99634.72;;;23.09;58.78
44637;BME280;30343;0.000;0.000;2022-08-04T00:27:48;99638.28;;;23.08;59.20
44637;BME280;30343;0.000;0.000;2022-08-04T00:30:32;99633.00;;;23.08;59.06
44637;BME280;30343;0.000;0.000;2022-08-04T00:33:22;99633.94;;;23.07;58.88
44637;BME280;30343;0.000;0.000;2022-08-04T00:36:10;99627.84;;;23.05;58.79
44637;BME280;30343;0.000;0.000;2022-08-04T00:38:55;99627.94;;;23.04;59.00
44637;BME280;30343;0.000;0.000;2022-08-04T00:47:48;99632.34;;;23.03;59.00
44637;BME280;30343;0.000;0.000;2022-08-04T00:50:58;99627.13;;;23.02;59.16
44637;BME280;30343;0.000;0.000;2022-08-04T01:00:11;99629.81;;;23.00;59.30
44637;BME280;30343;0.000;0.000;2022-08-04T01:03:13;99631.63;;;23.00;59.08
44637;BME280;30343;0.000;0.000;2022-08-04T01:09:33;99621.09;;;22.98;58.95
44637;BME280;30343;0.000;0.000;2022-08-04T01:18:27;99621.97;;;22.99;59.19
44637;BME280;30343;0.000;0.000;2022-08-04T01:21:26;99621.09;;;22.98;59.14
44637;BME280;30343;0.000;0.000;2022-08-04T01:27:41;99614.09;;;22.97;59.16
44637;BME280;30343;0.000;0.000;2022-08-04T01:30:32;99613.16;;;22.98;59.13
44637;BME280;30343;0.000;0.000;2022-08-04T01:33:21;99609.69;;;22.98;59.03
44637;BME280;30343;0.000;0.000;2022-08-04T01:36:05;99607.03;;;22.98;59.13
44637;BME280;30343;0.000;0.000;2022-08-04T01:38:53;99595.59;;;22.97;59.22
44637;BME280;30343;0.000;0.000;2022-08-04T01:41:37;99593.91;;;22.96;59.16
44637;BME280;30343;0.000;0.000;2022-08-04T01:44:22;99595.59;;;22.97;59.16
44637;BME280;30343;0.000;0.000;2022-08-04T01:47:10;99587.66;;;22.97;59.32
44637;BME280;30343;0.000;0.000;2022-08-04T01:50:03;99583.25;;;22.98;59.22
44637;BME280;30343;0.000;0.000;2022-08-04T01:52:54;99582.38;;;22.97;59.09
44637;BME280;30343;0.000;0.000;2022-08-04T01:55:42;99581.53;;;22.96;58.84
44637;BME280;30343;0.000;0.000;2022-08-04T01:58:29;99577.16;;;22.95;58.97
44637;BME280;30343;0.000;0.000;2022-08-04T02:01:16;99581.63;;;22.95;59.02
44637;BME280;30343;0.000;0.000;2022-08-04T02:04:00;99583.34;;;22.96;58.94
44637;BME280;30343;0.000;0.000;2022-08-04T02:07:08;99573.72;;;22.93;59.00
44637;BME280;30343;0.000;0.000;2022-08-04T02:10:22;99585.19;;;22.94;59.10
44637;BME280;30343;0.000;0.000;2022-08-04T02:13:26;99571.09;;;22.93;58.88
44637;BME280;30343;0.000;0.000;2022-08-04T02:16:31;99564.97;;;22.93;59.13
44637;BME280;30343;0.000;0.000;2022-08-04T02:19:29;99569.38;;;22.92;59.20
44637;BME280;30343;0.000;0.000;2022-08-04T02:22:17;99567.59;;;22.93;58.87
44637;BME280;30343;0.000;0.000;2022-08-04T02:25:09;99563.25;;;22.92;59.04
44637;BME280;30343;0.000;0.000;2022-08-04T02:27:55;99563.25;;;22.92;59.14
44637;BME280;30343;0.000;0.000;2022-08-04T02:31:02;99558.00;;;22.90;58.80
44637;BME280;30343;0.000;0.000;2022-08-04T02:34:06;99558.88;;;22.91;58.85
44637;BME280;30343;0.000;0.000;2022-08-04T02:36:55;99555.38;;;22.90;59.14
44637;BME280;30343;0.000;0.000;2022-08-04T02:39:41;99545.69;;;22.91;59.00
44637;BME280;30343;0.000;0.000;2022-08-04T02:42:28;99554.53;;;22.90;59.00
44637;BME280;30343;0.000;0.000;2022-08-04T02:45:12;99551.00;;;22.89;59.13
44637;BME280;30343;0.000;0.000;2022-08-04T02:48:00;99546.59;;;22.90;59.28
44637;BME280;30343;0.000;0.000;2022-08-04T02:50:47;99542.22;;;22.89;59.04
44637;BME280;30343;0.000;0.000;2022-08-04T02:53:35;99536.09;;;22.88;59.11
44637;BME280;30343;0.000;0.000;2022-08-04T02:56:21;99539.69;;;22.87;58.98
44637;BME280;30343;0.000;0.000;2022-08-04T02:59:15;99537.03;;;22.87;59.04
44637;BME280;30343;0.000;0.000;2022-08-04T03:02:04;99537.94;;;22.86;59.03
44637;BME280;30343;0.000;0.000;2022-08-04T03:05:12;99533.59;;;22.85;59.16
44637;BME280;30343;0.000;0.000;2022-08-04T03:32:54;99520.63;;;22.79;59.09
44637;BME280;30343;0.000;0.000;2022-08-04T03:36:09;99521.63;;;22.76;59.09
44637;BME280;30343;0.000;0.000;2022-08-04T04:02:25;99518.06;;;22.77;59.45
44637;BME280;30343;0.000;0.000;2022-08-04T04:07:57;99515.44;;;22.77;59.58
44637;BME280;30343;0.000;0.000;2022-08-04T04:11:09;99515.44;;;22.77;59.61
44637;BME280;30343;0.000;0.000;2022-08-04T04:20:21;99524.28;;;22.76;59.41
44637;BME280;30343;0.000;0.000;2022-08-04T04:26:48;99527.97;;;22.72;59.46
44637;BME280;30343;0.000;0.000;2022-08-04T04:29:47;99524.47;;;22.72;59.51
44637;BME280;30343;0.000;0.000;2022-08-04T04:36:10;99524.59;;;22.69;59.31
44637;BME280;30343;0.000;0.000;2022-08-04T04:45:18;99519.44;;;22.65;59.16
44637;BME280;30343;0.000;0.000;2022-08-04T04:48:08;99523.94;;;22.63;59.07
44637;BME280;30343;0.000;0.000;2022-08-04T04:51:09;99518.72;;;22.62;58.94
44637;BME280;30343;0.000;0.000;2022-08-04T05:00:01;99522.28;;;22.61;59.04
44637;BME280;30343;0.000;0.000;2022-08-04T05:05:59;99526.66;;;22.62;59.08
44637;BME280;30343;0.000;0.000;2022-08-04T05:09:11;99520.56;;;22.60;59.14
44637;BME280;30343;0.000;0.000;2022-08-04T05:12:25;99519.66;;;22.61;58.98
44637;BME280;30343;0.000;0.000;2022-08-04T05:15:16;99523.13;;;22.61;59.33
44637;BME280;30343;0.000;0.000;2022-08-04T05:18:09;99525.72;;;22.63;59.12
44637;BME280;30343;0.000;0.000;2022-08-04T05:21:18;99524.81;;;22.64;59.19
44637;BME280;30343;0.000;0.000;2022-08-04T05:24:11;99525.72;;;22.63;59.05
44637;BME280;30343;0.000;0.000;2022-08-04T05:27:04;99518.59;;;22.65;59.07
44637;BME280;30343;0.000;0.000;2022-08-04T05:29:56;99526.44;;;22.66;59.53
44637;BME280;30343;0.000;0.000;2022-08-04T05:32:59;99526.44;;;22.66;58.96
44637;BME280;30343;0.000;0.000;2022-08-04T05:35:51;99519.38;;;22.67;59.03
44637;BME280;30343;0.000;0.000;2022-08-04T05:38:43;99525.44;;;22.69;58.96
44637;BME280;30343;0.000;0.000;2022-08-04T05:41:29;99525.41;;;22.71;59.45
44637;BME280;30343;0.000;0.000;2022-08-04T05:44:16;99528.88;;;22.71;59.22
44637;BME280;30343;0.000;0.000;2022-08-04T05:47:01;99527.97;;;22.72;59.32
44637;BME280;30343;0.000;0.000;2022-08-04T05:49:47;99528.75;;;22.74;59.21
44637;BME280;30343;0.000;0.000;2022-08-04T05:52:33;99535.75;;;22.75;59.21
44637;BME280;30343;0.000;0.000;2022-08-04T05:55:19;99530.41;;;22.77;59.25
44637;BME280;30343;0.000;0.000;2022-08-04T05:58:05;99528.63;;;22.77;59.32
44637;BME280;30343;0.000;0.000;2022-08-04T06:00:50;99534.75;;;22.78;59.24
44637;BME280;30343;0.000;0.000;2022-08-04T06:03:36;99540.00;;;22.79;59.10
44637;BME280;30343;0.000;0.000;2022-08-04T06:06:21;99546.22;;;22.78;59.08
44637;BME280;30343;0.000;0.000;2022-08-04T06:09:06;99551.41;;;22.80;59.07
44637;BME280;30343;0.000;0.000;2022-08-04T06:17:31;99557.56;;;22.80;59.27
44637;BME280;30343;0.000;0.000;2022-08-04T06:23:05;99561.91;;;22.81;59.08
44637;BME280;30343;0.000;0.000;2022-08-04T06:28:36;99565.53;;;22.79;59.17
44637;BME280;30343;0.000;0.000;2022-08-04T06:31:22;99573.41;;;22.80;59.14
44637;BME280;30343;0.000;0.000;2022-08-04T06:34:26;99573.41;;;22.80;59.35
44637;BME280;30343;0.000;0.000;2022-08-04T06:37:11;99583.03;;;22.81;59.46
44637;BME280;30343;0.000;0.000;2022-08-04T06:39:56;99579.47;;;22.83;59.25
44637;BME280;30343;0.000;0.000;2022-08-04T06:48:12;99583.03;;;22.81;59.21
44637;BME280;30343;0.000;0.000;2022-08-04T06:50:58;99576.06;;;22.80;59.45
44637;BME280;30343;0.000;0.000;2022-08-04T06:59:17;99583.03;;;22.81;59.26
44637;BME280;30343;0.000;0.000;2022-08-04T07:04:47;99593.56;;;22.83;59.40
44637;BME280;30343;0.000;0.000;2022-08-04T07:07:31;99597.03;;;22.84;59.23
44637;BME280;30343;0.000;0.000;2022-08-04T07:10:17;99603.19;;;22.84;59.30
44637;BME280;30343;0.000;0.000;2022-08-04T07:13:01;99599.63;;;22.85;59.36
44637;BME280;30343;0.000;0.000;2022-08-04T07:15:47;99604.00;;;22.86;59.23
44637;BME280;30343;0.000;0.000;2022-08-04T07:18:35;99602.19;;;22.87;59.24
44637;BME280;30343;0.000;0.000;2022-08-04T07:21:22;99599.56;;;22.87;59.32
44637;BME280;30343;0.000;0.000;2022-08-04T07:24:07;99592.50;;;22.87;59.48
44637;BME280;30343;0.000;0.000;2022-08-04T07:26:51;99598.63;;;22.88;59.42
44637;BME280;30343;0.000;0.000;2022-08-04T07:29:36;99596.78;;;22.90;59.44
44637;BME280;30343;0.000;0.000;2022-08-04T07:32:21;99604.63;;;22.91;59.46
44637;BME280;30343;0.000;0.000;2022-08-04T07:35:06;99597.59;;;22.92;59.70
44637;BME280;30343;0.000;0.000;2022-08-04T07:37:51;99595.78;;;22.92;59.53
44637;BME280;30343;0.000;0.000;2022-08-04T07:40:35;99602.78;;;22.93;59.43
44637;BME280;30343;0.000;0.000;2022-08-04T07:43:18;99602.78;;;22.93;59.29
44637;BME280;30343;0.000;0.000;2022-08-04T07:46:03;99596.59;;;22.94;59.37
44637;BME280;30343;0.000;0.000;2022-08-04T07:48:47;99593.91;;;22.96;59.42
44637;BME280;30343;0.000;0.000;2022-08-04T07:51:34;99608.88;;;22.95;59.56
44637;BME280;30343;0.000;0.000;2022-08-04T07:54:19;99600.88;;;22.97;59.28
44637;BME280;30343;0.000;0.000;2022-08-04T07:57:03;99606.16;;;22.97;59.34
44637;BME280;30343;0.000;0.000;2022-08-04T07:59:47;99603.50;;;22.97;59.43
44637;BME280;30343;0.000;0.000;2022-08-04T08:02:32;99607.88;;;22.98;59.42
44637;BME280;30343;0.000;0.000;2022-08-04T08:05:19;99601.66;;;22.99;59.37
44637;BME280;30343;0.000;0.000;2022-08-04T08:08:03;99604.28;;;23.01;59.52
44637;BME280;30343;0.000;0.000;2022-08-04T08:10:47;99603.41;;;23.00;59.60
44637;BME280;30343;0.000;0.000;2022-08-04T08:13:32;99621.84;;;23.02;59.53
44637;BME280;30343;0.000;0.000;2022-08-04T08:16:17;99616.56;;;23.02;59.45
44637;BME280;30343;0.000;0.000;2022-08-04T08:19:04;99617.41;;;23.02;59.64
44637;BME280;30343;0.000;0.000;2022-08-04T08:21:51;99627.94;;;23.04;59.49
44637;BME280;30343;0.000;0.000;2022-08-04T08:24:35;99629.63;;;23.05;59.60
44637;BME280;30343;0.000;0.000;2022-08-04T08:27:23;99637.50;;;23.06;59.55
44637;BME280;30343;0.000;0.000;2022-08-04T08:30:07;99631.28;;;23.07;59.62
44637;BME280;30343;0.000;0.000;2022-08-04T08:32:52;99645.34;;;23.08;59.46
44637;BME280;30343;0.000;0.000;2022-08-04T08:35:44;99641.78;;;23.09;59.40
44637;BME280;30343;0.000;0.000;2022-08-04T08:47:06;99637.09;;;23.16;59.36
44637;BME280;30343;0.000;0.000;2022-08-04T08:56:14;99648.41;;;23.19;59.78
44637;BME280;30343;0.000;0.000;2022-08-04T09:11:07;99686.19;;;23.23;59.55
44637;BME280;30343;0.000;0.000;2022-08-04T09:14:00;99684.38;;;23.23;59.72
44637;BME280;30343;0.000;0.000;2022-08-04T09:16:53;99687.91;;;23.24;59.93
44637;BME280;30343;0.000;0.000;2022-08-04T09:19:44;99684.25;;;23.26;59.66
44637;BME280;30343;0.000;0.000;2022-08-04T09:25:30;99699.13;;;23.29;59.56
44637;BME280;30343;0.000;0.000;2022-08-04T09:28:24;99711.41;;;23.30;60.22
44637;BME280;30343;0.000;0.000;2022-08-04T09:31:12;99718.41;;;23.31;59.90
44637;BME280;30343;0.000;0.000;2022-08-04T09:37:00;99703.31;;;23.35;60.05
44637;BME280;30343;0.000;0.000;2022-08-04T09:40:03;99714.59;;;23.38;59.90
44637;BME280;30343;0.000;0.000;2022-08-04T09:46:01;99722.34;;;23.43;59.65
44637;BME280;30343;0.000;0.000;2022-08-04T09:48:54;99723.19;;;23.44;60.02
44637;BME280;30343;0.000;0.000;2022-08-04T09:57:40;99727.53;;;23.45;59.92
44637;BME280;30343;0.000;0.000;2022-08-04T10:00:34;99727.63;;;23.43;60.03
44637;BME280;30343;0.000;0.000;2022-08-04T10:03:21;99711.75;;;23.43;59.81
44637;BME280;30343;0.000;0.000;2022-08-04T10:12:37;99708.28;;;23.42;59.83
44637;BME280;30343;0.000;0.000;2022-08-04T10:15:30;99705.63;;;23.42;59.85
44637;BME280;30343;0.000;0.000;2022-08-04T10:18:27;99700.34;;;23.42;60.14
44637;BME280;30343;0.000;0.000;2022-08-04T10:27:27;99693.38;;;23.40;60.07
44637;BME280;30343;0.000;0.000;2022-08-04T10:30:15;99681.94;;;23.39;60.22
44637;BME280;30343;0.000;0.000;2022-08-04T10:33:11;99682.78;;;23.40;60.44
44637;BME280;30343;0.000;0.000;2022-08-04T10:36:03;99686.31;;;23.40;60.31
44637;BME280;30343;0.000;0.000;2022-08-04T10:38:56;99692.44;;;23.41;60.34
44637;BME280;30343;0.000;0.000;2022-08-04T10:42:12;99682.78;;;23.40;60.14
44637;BME280;30343;0.000;0.000;2022-08-04T10:45:35;99685.44;;;23.40;59.94
44637;BME280;30343;0.000;0.000;2022-08-04T10:48:56;99696.00;;;23.40;60.07
44637;BME280;30343;0.000;0.000;2022-08-04T10:51:50;99688.09;;;23.40;60.34
44637;BME280;30343;0.000;0.000;2022-08-04T10:57:43;99690.59;;;23.43;60.10
44637;BME280;30343;0.000;0.000;2022-08-04T11:00:30;99683.50;;;23.44;60.39
44637;BME280;30343;0.000;0.000;2022-08-04T11:03:23;99692.31;;;23.44;60.06
44637;BME280;30343;0.000;0.000;2022-08-04T11:06:10;99691.41;;;23.45;60.57
44637;BME280;30343;0.000;0.000;2022-08-04T11:08:54;99694.97;;;23.44;60.34
44637;BME280;30343;0.000;0.000;2022-08-04T11:14:30;99684.47;;;23.42;60.22
44637;BME280;30343;0.000;0.000;2022-08-04T11:17:25;99685.31;;;23.43;60.38
44637;BME280;30343;0.000;0.000;2022-08-04T11:23:08;99687.16;;;23.41;60.33
44637;BME280;30343;0.000;0.000;2022-08-04T11:31:59;99702.19;;;23.40;60.55
44637;BME280;30343;0.000;0.000;2022-08-04T11:34:51;99709.22;;;23.40;60.58
44637;BME280;30343;0.000;0.000;2022-08-04T11:37:53;99711.97;;;23.38;60.65
44637;BME280;30343;0.000;0.000;2022-08-04T11:40:44;99715.53;;;23.37;60.29
44637;BME280;30343;0.000;0.000;2022-08-04T11:43:55;99707.63;;;23.36;60.60
44637;BME280;30343;0.000;0.000;2022-08-04T11:46:45;99705.00;;;23.36;60.27
44637;BME280;30343;0.000;0.000;2022-08-04T11:49:45;99705.00;;;23.36;60.56
44637;BME280;30343;0.000;0.000;2022-08-04T11:52:33;99700.59;;;23.36;60.24
44637;BME280;30343;0.000;0.000;2022-08-04T11:55:20;99694.41;;;23.36;60.49
44637;BME280;30343;0.000;0.000;2022-08-04T11:58:08;99701.44;;;23.37;60.56
44637;BME280;30343;0.000;0.000;2022-08-04T12:01:11;99699.66;;;23.37;60.35
44637;BME280;30343;0.000;0.000;2022-08-04T12:10:25;99703.22;;;23.36;60.27
44637;BME280;30343;0.000;0.000;2022-08-04T12:13:39;99706.72;;;23.37;60.49
44637;BME280;30343;0.000;0.000;2022-08-04T12:16:51;99713.81;;;23.36;60.29
44637;BME280;30343;0.000;0.000;2022-08-04T12:19:54;99709.44;;;23.35;60.26
44637;BME280;30343;0.000;0.000;2022-08-04T12:22:44;99705.88;;;23.36;60.31
44637;BME280;30343;0.000;0.000;2022-08-04T12:25:33;99703.16;;;23.38;60.23
44637;BME280;30343;0.000;0.000;2022-08-04T12:28:32;99712.81;;;23.39;60.01
44637;BME280;30343;0.000;0.000;2022-08-04T12:31:22;99708.41;;;23.39;60.37
44637;BME280;30343;0.000;0.000;2022-08-04T12:37:27;99711.88;;;23.40;60.33
44637;BME280;30343;0.000;0.000;2022-08-04T12:40:16;99708.31;;;23.41;60.05
44637;BME280;30343;0.000;0.000;2022-08-04T12:43:12;99723.25;;;23.42;60.20
44637;BME280;30343;0.000;0.000;2022-08-04T12:46:01;99717.88;;;23.44;60.03
44637;BME280;30343;0.000;0.000;2022-08-04T12:48:47;99714.31;;;23.45;60.13
44637;BME280;30343;0.000;0.000;2022-08-04T12:51:38;99711.63;;;23.46;60.20
44637;BME280;30343;0.000;0.000;2022-08-04T12:54:25;99721.34;;;23.46;60.10
44637;BME280;30343;0.000;0.000;2022-08-04T12:57:10;99716.03;;;23.46;60.20
44637;BME280;30343;0.000;0.000;2022-08-04T12:59:57;99723.97;;;23.46;60.24
44637;BME280;30343;0.000;0.000;2022-08-04T13:02:44;99722.25;;;23.45;60.16
44637;BME280;30343;0.000;0.000;2022-08-04T13:05:30;99725.78;;;23.45;60.22
44637;BME280;30343;0.000;0.000;2022-08-04T13:08:19;99724.84;;;23.46;59.94
44637;BME280;30343;0.000;0.000;2022-08-04T13:11:03;99724.84;;;23.46;60.27
44637;BME280;30343;0.000;0.000;2022-08-04T13:13:53;99729.22;;;23.47;60.22
44637;BME280;30343;0.000;0.000;2022-08-04T13:16:38;99732.66;;;23.49;60.25
44637;BME280;30343;0.000;0.000;2022-08-04T13:19:22;99730.06;;;23.48;60.55
44637;BME280;30343;0.000;0.000;2022-08-04T13:22:08;99734.38;;;23.50;60.36
44637;BME280;30343;0.000;0.000;2022-08-04T13:24:52;99730.84;;;23.50;60.36
44637;BME280;30343;0.000;0.000;2022-08-04T13:27:38;99723.81;;;23.50;60.25
44637;BME280;30343;0.000;0.000;2022-08-04T13:30:30;99725.50;;;23.51;60.38
44637;BME280;30343;0.000;0.000;2022-08-04T13:33:17;99715.78;;;23.52;60.17
44637;BME280;30343;0.000;0.000;2022-08-04T13:36:03;99721.09;;;23.52;60.35
44637;BME280;30343;0.000;0.000;2022-08-04T13:38:54;99729.81;;;23.54;60.31
44637;BME280;30343;0.000;0.000;2022-08-04T13:41:46;99725.44;;;23.53;60.17
44637;BME280;30343;0.000;0.000;2022-08-04T13:44:34;99713.03;;;23.55;60.48
44637;BME280;30343;0.000;0.000;2022-08-04T13:47:20;99704.16;;;23.56;60.35
44637;BME280;30343;0.000;0.000;2022-08-04T13:50:25;99710.31;;;23.56;60.28
44637;BME280;30343;0.000;0.000;2022-08-04T13:53:11;99714.75;;;23.56;60.46
44637;BME280;30343;0.000;0.000;2022-08-04T13:55:59;99719.94;;;23.57;60.60
44637;BME280;30343;0.000;0.000;2022-08-04T13:58:44;99719.88;;;23.59;60.44
44637;BME280;30343;0.000;0.000;2022-08-04T14:01:29;99713.75;;;23.59;60.38
44637;BME280;30343;0.000;0.000;2022-08-04T14:04:19;99713.66;;;23.60;60.44
44637;BME280;30343;0.000;0.000;2022-08-04T14:07:14;99707.53;;;23.60;60.70
44637;BME280;30343;0.000;0.000;2022-08-04T14:10:00;99699.50;;;23.61;60.82
44637;BME280;30343;0.000;0.000;2022-08-04T14:12:55;99688.88;;;23.63;60.64
44637;BME280;30343;0.000;0.000;2022-08-04T14:15:43;99692.38;;;23.63;60.81
44637;BME280;30343;0.000;0.000;2022-08-04T14:18:30;99691.53;;;23.63;60.70
44637;BME280;30343;0.000;0.000;2022-08-04T14:21:17;99702.91;;;23.65;60.78
44637;BME280;30343;0.000;0.000;2022-08-04T14:24:01;99702.91;;;23.65;60.51
44637;BME280;30343;0.000;0.000;2022-08-04T14:26:48;99708.19;;;23.65;60.68
44637;BME280;30343;0.000;0.000;2022-08-04T14:29:36;99710.75;;;23.66;60.78
44637;BME280;30343;0.000;0.000;2022-08-04T14:32:21;99696.53;;;23.69;61.09
44637;BME280;30343;0.000;0.000;2022-08-04T14:35:11;99688.53;;;23.70;60.87
44637;BME280;30343;0.000;0.000;2022-08-04T14:38:01;99684.97;;;23.71;60.76
44637;BME280;30343;0.000;0.000;2022-08-04T14:40:45;99694.56;;;23.74;61.03
44637;BME280;30343;0.000;0.000;2022-08-04T14:43:29;99688.25;;;23.77;61.09
44637;BME280;30343;0.000;0.000;2022-08-04T14:46:13;99678.56;;;23.77;61.08
44637;BME280;30343;0.000;0.000;2022-08-04T14:49:08;99683.84;;;23.77;61.09
44637;BME280;30343;0.000;0.000;2022-08-04T14:51:55;99688.25;;;23.77;60.88
44637;BME280;30343;0.000;0.000;2022-08-04T14:54:40;99689.97;;;23.78;61.14
44637;BME280;30343;0.000;0.000;2022-08-04T14:57:24;99697.00;;;23.79;61.20
44637;BME280;30343;0.000;0.000;2022-08-04T15:00:09;99689.06;;;23.79;61.37
44637;BME280;30343;0.000;0.000;2022-08-04T15:03:01;99683.72;;;23.80;60.93
44637;BME280;30343;0.000;0.000;2022-08-04T15:05:47;99685.44;;;23.81;61.36
44637;BME280;30343;0.000;0.000;2022-08-04T15:08:32;99682.69;;;23.83;61.26
44637;BME280;30343;0.000;0.000;2022-08-04T15:11:16;99680.84;;;23.85;61.13
44637;BME280;30343;0.000;0.000;2022-08-04T15:14:01;99678.13;;;23.86;61.29
44637;BME280;30343;0.000;0.000;2022-08-04T15:16:48;99674.56;;;23.87;61.26
44637;BME280;30343;0.000;0.000;2022-08-04T15:19:32;99676.28;;;23.88;61.21
44637;BME280;30343;0.000;0.000;2022-08-04T15:22:16;99678.00;;;23.90;61.31
44637;BME280;30343;0.000;0.000;2022-08-04T15:25:04;99678.88;;;23.90;61.06
44637;BME280;30343;0.000;0.000;2022-08-04T15:27:50;99671.78;;;23.91;61.27
44637;BME280;30343;0.000;0.000;2022-08-04T15:30:36;99670.06;;;23.90;61.31
44637;BME280;30343;0.000;0.000;2022-08-04T15:33:22;99665.63;;;23.90;61.17
44637;BME280;30343;0.000;0.000;2022-08-04T15:36:41;99669.03;;;23.92;61.26
44637;BME280;30343;0.000;0.000;2022-08-04T15:42:34;99671.56;;;23.95;61.42
44637;BME280;30343;0.000;0.000;2022-08-04T15:51:07;99671.69;;;23.92;60.98
44637;BME280;30343;0.000;0.000;2022-08-04T15:56:44;99673.56;;;23.90;61.55
44637;BME280;30343;0.000;0.000;2022-08-04T16:00:00;99669.97;;;23.91;61.31
44637;BME280;30343;0.000;0.000;2022-08-04T16:02:44;99664.69;;;23.91;61.01
44637;BME280;30343;0.000;0.000;2022-08-04T16:05:30;99662.91;;;23.92;61.49
44637;BME280;30343;0.000;0.000;2022-08-04T16:08:16;99653.16;;;23.92;61.50
44637;BME280;30343;0.000;0.000;2022-08-04T16:11:00;99655.69;;;23.95;61.46
44637;BME280;30343;0.000;0.000;2022-08-04T16:16:53;99644.25;;;23.95;61.16
44637;BME280;30343;0.000;0.000;2022-08-04T16:22:35;99643.28;;;23.97;61.52
44637;BME280;30343;0.000;0.000;2022-08-04T16:25:41;99643.28;;;23.97;61.28
44637;BME280;30343;0.000;0.000;2022-08-04T16:31:21;99643.28;;;23.97;61.53
44637;BME280;30343;0.000;0.000;2022-08-04T16:34:08;99653.84;;;23.97;61.48
44637;BME280;30343;0.000;0.000;2022-08-04T16:36:57;99649.44;;;23.98;61.08
44637;BME280;30343;0.000;0.000;2022-08-04T16:39:42;99644.16;;;23.98;60.98
44637;BME280;30343;0.000;0.000;2022-08-04T16:45:12;99652.13;;;23.96;61.08
44637;BME280;30343;0.000;0.000;2022-08-04T16:47:59;99644.19;;;23.96;61.02
44637;BME280;30343;0.000;0.000;2022-08-04T16:53:43;99635.38;;;23.96;60.89
44637;BME280;30343;0.000;0.000;2022-08-04T16:56:33;99638.97;;;23.95;61.28
44637;BME280;30343;0.000;0.000;2022-08-04T16:59:19;99643.38;;;23.94;61.26
44637;BME280;30343;0.000;0.000;2022-08-04T17:02:08;99632.78;;;23.94;61.32
44637;BME280;30343;0.000;0.000;2022-08-04T17:04:53;99637.16;;;23.95;61.49
44637;BME280;30343;0.000;0.000;2022-08-04T17:07:50;99640.72;;;23.94;61.21
44637;BME280;30343;0.000;0.000;2022-08-04T17:13:27;99644.19;;;23.96;61.40
44637;BME280;30343;0.000;0.000;2022-08-04T17:16:16;99646.84;;;23.96;61.54
44637;BME280;30343;0.000;0.000;2022-08-04T17:19:02;99639.78;;;23.97;61.29
44637;BME280;30343;0.000;0.000;2022-08-04T17:21:47;99652.13;;;23.96;61.10
44637;BME280;30343;0.000;0.000;2022-08-04T17:24:34;99645.97;;;23.96;61.47
44637;BME280;30343;0.000;0.000;2022-08-04T17:27:19;99654.78;;;23.96;61.02
44637;BME280;30343;0.000;0.000;2022-08-04T17:30:24;99653.84;;;23.97;60.95
44637;BME280;30343;0.000;0.000;2022-08-04T17:33:12;99651.25;;;23.96;61.20
44637;BME280;30343;0.000;0.000;2022-08-04T17:35:59;99643.31;;;23.96;61.32
44637;BME280;30343;0.000;0.000;2022-08-04T17:41:29;99645.22;;;23.92;61.19
44637;BME280;30343;0.000;0.000;2022-08-04T17:44:13;99642.75;;;23.89;61.43
44637;BME280;30343;0.000;0.000;2022-08-04T17:47:06;99637.38;;;23.91;61.19
44637;BME280;30343;0.000;0.000;2022-08-04T17:49:51;99636.53;;;23.90;61.33
44637;BME280;30343;0.000;0.000;2022-08-04T17:53:02;99650.69;;;23.89;61.09
44637;BME280;30343;0.000;0.000;2022-08-04T17:55:49;99647.13;;;23.90;61.53
44637;BME280;30343;0.000;0.000;2022-08-04T17:58:36;99646.25;;;23.90;61.44
44637;BME280;30343;0.000;0.000;2022-08-04T18:01:20;99639.31;;;23.87;61.46
44637;BME280;30343;0.000;0.000;2022-08-04T18:04:26;99657.88;;;23.85;61.13
44637;BME280;30343;0.000;0.000;2022-08-04T18:10:39;99667.69;;;23.83;61.28
44637;BME280;30343;0.000;0.000;2022-08-04T18:13:24;99669.47;;;23.83;61.28
44637;BME280;30343;0.000;0.000;2022-08-04T18:16:09;99672.13;;;23.83;61.64
44637;BME280;30343;0.000;0.000;2022-08-04T18:19:13;99680.97;;;23.82;61.43
44637;BME280;30343;0.000;0.000;2022-08-04T18:21:58;99683.75;;;23.79;61.01
44637;BME280;30343;0.000;0.000;2022-08-04T18:24:42;99684.69;;;23.78;61.35
44637;BME280;30343;0.000;0.000;2022-08-04T18:27:28;99694.41;;;23.77;61.52
44637;BME280;30343;0.000;0.000;2022-08-04T18:30:13;99698.78;;;23.78;61.26
44637;BME280;30343;0.000;0.000;2022-08-04T18:32:57;99697.06;;;23.77;61.27
44637;BME280;30343;0.000;0.000;2022-08-04T18:35:41;99696.16;;;23.78;61.19
44637;BME280;30343;0.000;0.000;2022-08-04T18:38:25;99704.13;;;23.77;61.41
44637;BME280;30343;0.000;0.000;2022-08-04T18:41:09;99708.56;;;23.76;61.33
44637;BME280;30343;0.000;0.000;2022-08-04T18:43:56;99707.78;;;23.74;61.65
44637;BME280;30343;0.000;0.000;2022-08-04T18:46:42;99712.16;;;23.75;61.47
44637;BME280;30343;0.000;0.000;2022-08-04T18:49:26;99713.00;;;23.76;61.35
44637;BME280;30343;0.000;0.000;2022-08-04T18:52:10;99709.50;;;23.75;61.54
44637;BME280;30343;0.000;0.000;2022-08-04T18:54:54;99720.09;;;23.75;61.57
44637;BME280;30343;0.000;0.000;2022-08-04T18:57:38;99735.03;;;23.76;61.44
44637;BME280;30343;0.000;0.000;2022-08-04T19:03:04;99735.25;;;23.71;61.59
44637;BME280;30343;0.000;0.000;2022-08-04T19:05:51;99730.78;;;23.72;61.45
44637;BME280;30343;0.000;0.000;2022-08-04T19:08:38;99737.88;;;23.71;61.43
44637;BME280;30343;0.000;0.000;2022-08-04T19:11:22;99745.81;;;23.71;61.57
44637;BME280;30343;0.000;0.000;2022-08-04T19:14:08;99747.53;;;23.72;61.57
44637;BME280;30343;0.000;0.000;2022-08-04T19:16:52;99752.81;;;23.72;61.42
44637;BME280;30343;0.000;0.000;2022-08-04T19:19:36;99766.97;;;23.71;61.34